createdAt,value
2018-12-10T00:02:25.497Z,2.80
2018-12-10T00:04:52.113Z,3.30
2018-12-10T00:07:18.697Z,3.60
2018-12-10T00:09:45.269Z,4.30
2018-12-10T00:12:11.903Z,4.03
2018-12-10T00:14:38.477Z,3.50
2018-12-10T00:17:05.496Z,3.70
2018-12-10T00:19:32.073Z,3.80
2018-12-10T00:21:58.635Z,3.17
2018-12-10T00:24:25.548Z,2.93
2018-12-10T00:26:52.122Z,3.37
2018-12-10T00:29:18.686Z,2.60
2018-12-10T00:31:45.565Z,2.83
2018-12-10T00:34:12.124Z,2.50
2018-12-10T00:36:38.713Z,3.77
2018-12-10T00:39:06.021Z,2.50
2018-12-10T00:41:32.597Z,3.13
2018-12-10T00:43:59.192Z,2.77
2018-12-10T00:46:25.777Z,2.63
2018-12-10T00:48:52.349Z,2.23
2018-12-10T00:51:18.933Z,2.40
2018-12-10T00:53:45.536Z,2.57
2018-12-10T00:56:12.113Z,2.67
2018-12-10T00:58:38.697Z,3.30
2018-12-10T01:01:05.295Z,2.27
2018-12-10T01:03:31.888Z,2.70
2018-12-10T01:05:58.502Z,3.17
2018-12-10T01:08:25.093Z,2.60
2018-12-10T01:10:51.797Z,2.60
2018-12-10T01:13:18.419Z,2.17
2018-12-10T01:15:45.088Z,1.67
2018-12-10T01:18:11.645Z,1.80
2018-12-10T01:20:38.216Z,1.77
2018-12-10T01:23:04.837Z,1.87
2018-12-10T01:25:31.405Z,2.10
2018-12-10T01:27:58.025Z,1.80
2018-12-10T01:30:24.609Z,2.03
2018-12-10T01:32:51.180Z,2.20
2018-12-10T01:35:17.768Z,2.20
2018-12-10T01:37:44.336Z,2.10
2018-12-10T01:40:10.952Z,2.30
2018-12-10T01:42:37.517Z,1.70
2018-12-10T01:45:05.110Z,2.30
2018-12-10T01:47:31.697Z,2.07
2018-12-10T01:49:58.266Z,3.37
2018-12-10T01:52:24.848Z,3.13
2018-12-10T01:54:51.432Z,2.77
2018-12-10T01:57:18.000Z,2.03
2018-12-10T01:59:44.580Z,2.00
2018-12-10T02:02:11.169Z,1.80
2018-12-10T02:04:37.733Z,1.97
2018-12-10T02:07:04.322Z,1.83
2018-12-10T02:09:30.885Z,2.13
2018-12-10T02:11:57.477Z,1.90
2018-12-10T02:14:24.100Z,2.53
2018-12-10T02:16:50.692Z,1.70
2018-12-10T02:19:17.249Z,1.70
2018-12-10T02:21:43.833Z,2.10
2018-12-10T02:24:10.434Z,2.70
2018-12-10T02:26:37.097Z,2.27
2018-12-10T02:29:09.444Z,1.70
2018-12-10T02:31:36.038Z,2.40
2018-12-10T02:34:02.638Z,1.63
2018-12-10T02:36:29.205Z,2.33
2018-12-10T02:38:55.793Z,2.20
2018-12-10T02:41:22.355Z,1.90
2018-12-10T02:43:49.021Z,2.00
2018-12-10T02:46:15.606Z,2.30
2018-12-10T02:48:42.262Z,2.13
2018-12-10T02:51:08.939Z,2.40
2018-12-10T02:53:35.513Z,1.80
2018-12-10T02:56:02.095Z,2.40
2018-12-10T02:58:28.673Z,2.07
2018-12-10T03:00:55.248Z,2.03
2018-12-10T03:03:21.845Z,1.60
2018-12-10T03:05:48.428Z,1.80
2018-12-10T03:08:15.025Z,2.10
2018-12-10T03:10:41.628Z,2.00
2018-12-10T03:13:08.197Z,1.70
2018-12-10T03:15:34.877Z,1.50
2018-12-10T03:18:01.512Z,2.07
2018-12-10T03:20:28.116Z,1.60
2018-12-10T03:22:54.685Z,2.27
2018-12-10T03:25:21.299Z,2.13
2018-12-10T03:27:47.970Z,1.60
2018-12-10T03:30:14.562Z,1.40
2018-12-10T03:32:41.204Z,1.43
2018-12-10T03:35:07.841Z,1.70
2018-12-10T03:37:34.436Z,2.03
2018-12-10T03:40:01.001Z,1.67
2018-12-10T03:42:27.613Z,1.60
2018-12-10T03:44:54.202Z,1.17
2018-12-10T03:47:20.845Z,1.37
2018-12-10T03:49:47.426Z,1.80
2018-12-10T03:52:13.993Z,1.47
2018-12-10T03:54:40.568Z,2.33
2018-12-10T03:57:07.132Z,1.50
2018-12-10T03:59:33.751Z,1.90
2018-12-10T04:02:00.388Z,2.10
2018-12-10T04:04:26.962Z,1.40
2018-12-10T04:06:53.563Z,1.60
2018-12-10T04:09:20.127Z,1.30
2018-12-10T04:11:46.718Z,1.50
2018-12-10T04:14:13.310Z,1.60
2018-12-10T04:16:39.880Z,1.40
2018-12-10T04:19:06.457Z,1.80
2018-12-10T04:21:33.028Z,1.53
2018-12-10T04:23:59.614Z,1.40
2018-12-10T04:26:26.177Z,1.50
2018-12-10T04:28:52.738Z,1.60
2018-12-10T04:31:19.349Z,1.20
2018-12-10T04:33:45.937Z,1.27
2018-12-10T04:36:12.521Z,1.20
2018-12-10T04:38:39.105Z,1.10
2018-12-10T04:41:05.692Z,1.87
2018-12-10T04:43:32.249Z,1.47
2018-12-10T04:45:58.860Z,1.60
2018-12-10T04:48:25.435Z,1.63
2018-12-10T04:50:52.112Z,1.77
2018-12-10T04:53:18.905Z,1.50
2018-12-10T04:55:45.504Z,1.43
2018-12-10T04:58:12.148Z,1.60
2018-12-10T05:00:38.754Z,1.97
2018-12-10T05:03:05.317Z,1.77
2018-12-10T05:05:31.897Z,1.40
2018-12-10T05:07:58.467Z,1.43
2018-12-10T05:10:25.029Z,1.73
2018-12-10T05:12:51.618Z,1.17
2018-12-10T05:15:18.185Z,1.57
2018-12-10T05:17:44.740Z,1.13
2018-12-10T05:20:11.320Z,1.20
2018-12-10T05:22:37.900Z,1.20
2018-12-10T05:25:04.496Z,1.10
2018-12-10T05:27:31.063Z,1.40
2018-12-10T05:29:57.640Z,1.40
2018-12-10T05:32:24.221Z,1.50
2018-12-10T05:34:50.823Z,1.73
2018-12-10T05:37:17.406Z,1.80
2018-12-10T05:39:43.969Z,1.40
2018-12-10T05:42:10.541Z,1.43
2018-12-10T05:44:37.129Z,1.50
2018-12-10T05:47:03.697Z,2.07
2018-12-10T05:49:30.282Z,1.50
2018-12-10T05:51:56.839Z,1.53
2018-12-10T05:54:23.420Z,1.43
2018-12-10T05:56:50.017Z,1.43
2018-12-10T05:59:16.579Z,1.67
2018-12-10T06:01:43.185Z,1.60
2018-12-10T06:04:09.761Z,1.83
2018-12-10T06:06:36.320Z,1.80
2018-12-10T06:09:04.264Z,2.23
2018-12-10T06:11:30.841Z,2.17
2018-12-10T06:13:57.413Z,2.23
2018-12-10T06:16:23.996Z,2.27
2018-12-10T06:18:50.632Z,2.97
2018-12-10T06:21:17.217Z,2.60
2018-12-10T06:23:43.772Z,2.80
2018-12-10T06:26:10.363Z,3.10
2018-12-10T06:28:37.005Z,2.80
2018-12-10T06:31:03.585Z,2.70
2018-12-10T06:33:30.172Z,2.87
2018-12-10T06:35:56.764Z,3.50
2018-12-10T06:38:23.342Z,3.40
2018-12-10T06:40:49.901Z,3.90
2018-12-10T06:43:16.501Z,4.17
2018-12-10T06:45:43.066Z,4.40
2018-12-10T06:48:09.629Z,4.50
2018-12-10T06:50:36.221Z,4.60
2018-12-10T06:53:02.812Z,4.70
2018-12-10T06:55:29.389Z,4.60
2018-12-10T06:57:55.985Z,4.50
2018-12-10T07:00:22.585Z,4.80
2018-12-10T07:02:49.266Z,5.67
2018-12-10T07:05:15.836Z,5.07
2018-12-10T07:07:42.415Z,5.40
2018-12-10T07:10:09.004Z,5.13
2018-12-10T07:12:35.620Z,5.50
2018-12-10T07:15:02.217Z,4.10
2018-12-10T07:17:28.790Z,4.37
2018-12-10T07:19:55.377Z,4.07
2018-12-10T07:22:21.953Z,4.00
2018-12-10T07:24:48.540Z,3.70
2018-12-10T07:27:15.108Z,4.47
2018-12-10T07:29:41.680Z,3.60
2018-12-10T07:32:08.285Z,3.80
2018-12-10T07:34:34.853Z,3.43
2018-12-10T07:37:01.426Z,3.90
2018-12-10T07:39:28.000Z,3.57
2018-12-10T07:41:54.578Z,3.43
2018-12-10T07:44:21.225Z,3.27
2018-12-10T07:46:47.812Z,3.30
2018-12-10T07:49:14.376Z,3.83
2018-12-10T07:51:40.980Z,3.20
2018-12-10T07:54:07.576Z,3.10
2018-12-10T07:56:34.128Z,3.17
2018-12-10T07:59:00.698Z,3.00
2018-12-10T08:01:27.288Z,2.90
2018-12-10T08:03:53.881Z,3.20
2018-12-10T08:06:20.444Z,3.03
2018-12-10T08:08:47.024Z,2.50
2018-12-10T08:11:13.612Z,2.50
2018-12-10T08:13:40.207Z,2.57
2018-12-10T08:16:06.869Z,2.30
2018-12-10T08:18:33.426Z,2.40
2018-12-10T08:21:02.374Z,2.10
2018-12-10T08:23:28.612Z,2.33
2018-12-10T08:25:55.256Z,1.83
2018-12-10T08:28:21.870Z,2.33
2018-12-10T08:30:48.513Z,2.10
2018-12-10T08:33:15.104Z,2.30
2018-12-10T08:35:41.694Z,2.17
2018-12-10T08:38:08.297Z,2.00
2018-12-10T08:40:34.921Z,2.67
2018-12-10T08:43:01.521Z,3.47
2018-12-10T08:45:28.128Z,3.20
2018-12-10T08:47:54.752Z,2.97
2018-12-10T08:50:21.349Z,2.90
2018-12-10T08:52:47.939Z,3.17
2018-12-10T08:55:14.528Z,2.77
2018-12-10T08:57:41.150Z,3.93
2018-12-10T09:00:07.937Z,3.30
2018-12-10T09:02:34.510Z,5.60
2018-12-10T09:05:01.097Z,6.23
2018-12-10T09:07:27.757Z,4.20
2018-12-10T09:09:54.319Z,3.33
2018-12-10T09:12:20.905Z,3.70
2018-12-10T09:14:47.509Z,3.07
2018-12-10T09:17:14.068Z,3.10
2018-12-10T09:19:40.633Z,3.00
2018-12-10T09:22:07.213Z,2.33
2018-12-10T09:24:33.821Z,2.97
2018-12-10T09:27:00.388Z,2.30
2018-12-10T09:29:27.022Z,2.40
2018-12-10T09:31:53.642Z,2.90
2018-12-10T09:34:20.209Z,3.10
2018-12-10T09:36:47.003Z,3.83
2018-12-10T09:39:13.664Z,3.97
2018-12-10T09:41:40.248Z,3.60
2018-12-10T09:44:06.816Z,4.03
2018-12-10T09:46:33.400Z,4.17
2018-12-10T09:48:59.969Z,4.47
2018-12-10T09:51:26.548Z,3.97
2018-12-10T09:53:53.112Z,4.60
2018-12-10T09:56:19.701Z,4.80
2018-12-10T09:58:46.296Z,5.47
2018-12-10T10:01:12.901Z,5.67
2018-12-10T10:03:39.500Z,5.30
2018-12-10T10:06:06.088Z,5.63
2018-12-10T10:08:32.672Z,5.33
2018-12-10T10:10:59.249Z,5.47
2018-12-10T10:13:25.919Z,5.63
2018-12-10T10:15:52.513Z,5.53
2018-12-10T10:18:19.076Z,7.20
2018-12-10T10:20:45.697Z,6.60
2018-12-10T10:23:12.626Z,6.70
2018-12-10T10:28:12.296Z,6.50
2018-12-10T10:30:43.796Z,6.60
2018-12-10T10:33:07.462Z,6.80
2018-12-10T10:35:34.084Z,5.10
2018-12-10T10:38:00.700Z,5.97
2018-12-10T10:40:27.249Z,4.57
2018-12-10T10:42:53.837Z,4.67
2018-12-10T10:45:20.440Z,4.20
2018-12-10T10:47:47.030Z,3.80
2018-12-10T10:50:13.592Z,3.20
2018-12-10T10:52:40.163Z,3.10
2018-12-10T10:55:06.765Z,3.33
2018-12-10T10:57:33.348Z,3.10
2018-12-10T10:59:59.944Z,2.43
2018-12-10T11:02:32.229Z,2.50
2018-12-10T11:04:58.823Z,2.47
2018-12-10T11:07:25.446Z,2.50
2018-12-10T11:09:52.033Z,2.50
2018-12-10T11:12:18.602Z,2.57
2018-12-10T11:14:45.194Z,2.77
2018-12-10T11:17:11.752Z,2.83
2018-12-10T11:19:38.390Z,2.53
2018-12-10T11:22:04.990Z,2.43
2018-12-10T11:24:31.584Z,2.60
2018-12-10T11:26:58.200Z,2.73
2018-12-10T11:29:24.773Z,2.40
2018-12-10T11:31:51.394Z,2.97
2018-12-10T11:34:17.991Z,2.33
2018-12-10T11:36:44.672Z,2.20
2018-12-10T11:39:11.266Z,2.00
2018-12-10T11:41:37.853Z,2.00
2018-12-10T11:44:04.426Z,2.77
2018-12-10T11:46:31.037Z,3.50
2018-12-10T11:48:57.618Z,4.20
2018-12-10T11:51:24.191Z,5.80
2018-12-10T11:53:50.761Z,8.03
2018-12-10T11:56:17.393Z,9.97
2018-12-10T11:58:43.976Z,10.23
2018-12-10T12:01:10.552Z,9.20
2018-12-10T12:03:37.145Z,7.70
2018-12-10T12:06:03.741Z,8.83
2018-12-10T12:08:30.335Z,7.93
2018-12-10T12:10:56.922Z,9.43
2018-12-10T12:13:23.497Z,8.30
2018-12-10T12:15:50.117Z,9.13
2018-12-10T12:18:16.696Z,7.87
2018-12-10T12:20:43.319Z,7.33
2018-12-10T12:23:09.980Z,8.17
2018-12-10T12:25:36.559Z,6.40
2018-12-10T12:28:03.158Z,6.77
2018-12-10T12:30:29.725Z,5.57
2018-12-10T12:32:56.352Z,5.83
2018-12-10T12:35:22.969Z,6.67
2018-12-10T12:37:49.536Z,6.93
2018-12-10T12:40:16.128Z,7.20
2018-12-10T12:42:42.725Z,5.80
2018-12-10T12:45:09.328Z,3.23
2018-12-10T12:47:35.924Z,3.13
2018-12-10T12:50:02.630Z,4.00
2018-12-10T12:52:29.220Z,3.00
2018-12-10T12:54:55.785Z,3.40
2018-12-10T12:57:22.385Z,2.80
2018-12-10T12:59:48.970Z,3.10
2018-12-10T13:02:15.568Z,3.40
2018-12-10T13:04:42.180Z,3.53
2018-12-10T13:07:08.752Z,3.80
2018-12-10T13:09:35.332Z,3.90
2018-12-10T13:12:01.985Z,4.37
2018-12-10T13:14:28.558Z,5.07
2018-12-10T13:16:55.177Z,4.00
2018-12-10T13:19:21.780Z,3.57
2018-12-10T13:21:48.365Z,3.90
2018-12-10T13:24:14.933Z,3.83
2018-12-10T13:26:41.556Z,3.60
2018-12-10T13:29:08.251Z,3.73
2018-12-10T13:31:35.045Z,4.37
2018-12-10T13:34:01.682Z,4.03
2018-12-10T13:36:28.345Z,4.90
2018-12-10T13:38:54.945Z,4.03
2018-12-10T13:41:21.529Z,3.60
2018-12-10T13:43:48.153Z,4.07
2018-12-10T13:46:15.505Z,3.93
2018-12-10T13:48:42.230Z,4.00
2018-12-10T13:51:08.845Z,4.33
2018-12-10T13:53:35.417Z,4.00
2018-12-10T13:56:02.022Z,4.60
2018-12-10T13:58:28.593Z,4.20
2018-12-10T14:00:55.164Z,4.77
2018-12-10T14:03:21.780Z,5.53
2018-12-10T14:05:48.368Z,6.83
2018-12-10T14:08:14.970Z,9.93
2018-12-10T14:10:41.565Z,9.60
2018-12-10T14:13:08.139Z,9.73
2018-12-10T14:15:34.717Z,8.70
2018-12-10T14:18:01.312Z,7.80
2018-12-10T14:20:27.928Z,6.30
2018-12-10T14:22:54.505Z,7.47
2018-12-10T14:25:22.729Z,5.33
2018-12-10T14:27:49.431Z,4.50
2018-12-10T14:30:16.040Z,4.57
2018-12-10T14:32:42.636Z,3.20
2018-12-10T14:35:09.205Z,3.03
2018-12-10T14:37:35.804Z,3.40
2018-12-10T14:40:02.406Z,3.20
2018-12-10T14:42:28.972Z,4.07
2018-12-10T14:44:55.565Z,4.07
2018-12-10T14:47:22.165Z,4.40
2018-12-10T14:49:48.733Z,4.53
2018-12-10T14:52:15.324Z,4.50
2018-12-10T14:54:41.890Z,4.57
2018-12-10T14:57:08.465Z,5.23
2018-12-10T14:59:35.059Z,3.93
2018-12-10T15:02:01.656Z,3.73
2018-12-10T15:04:28.226Z,3.10
2018-12-10T15:06:54.793Z,2.97
2018-12-10T15:09:21.371Z,2.53
2018-12-10T15:11:47.948Z,2.33
2018-12-10T15:14:14.612Z,2.20
2018-12-10T15:16:41.185Z,1.80
2018-12-10T15:19:07.849Z,2.07
2018-12-10T15:21:34.418Z,2.17
2018-12-10T15:24:00.984Z,2.60
2018-12-10T15:26:27.605Z,3.20
2018-12-10T15:28:54.172Z,2.80
2018-12-10T15:31:20.753Z,3.30
2018-12-10T15:33:47.337Z,3.23
2018-12-10T15:36:13.919Z,3.53
2018-12-10T15:38:40.506Z,3.70
2018-12-10T15:41:07.100Z,2.80
2018-12-10T15:43:33.675Z,2.50
2018-12-10T15:46:00.259Z,2.60
2018-12-10T15:48:26.832Z,3.10
2018-12-10T15:50:53.412Z,2.60
2018-12-10T15:53:19.999Z,2.90
2018-12-10T15:55:46.562Z,2.73
2018-12-10T15:58:13.149Z,3.70
2018-12-10T16:00:39.736Z,2.73
2018-12-10T16:03:06.297Z,4.60
2018-12-10T16:05:32.888Z,4.40
2018-12-10T16:07:59.470Z,4.37
2018-12-10T16:10:26.072Z,3.47
2018-12-10T16:12:52.677Z,3.00
2018-12-10T16:15:19.254Z,3.03
2018-12-10T16:17:45.845Z,2.60
2018-12-10T16:20:12.445Z,2.43
2018-12-10T16:22:39.017Z,2.13
2018-12-10T16:25:05.638Z,2.43
2018-12-10T16:27:32.326Z,2.10
2018-12-10T16:29:58.924Z,2.40
2018-12-10T16:32:25.520Z,2.70
2018-12-10T16:34:52.089Z,3.83
2018-12-10T16:37:18.676Z,2.80
2018-12-10T16:39:45.269Z,3.00
2018-12-10T16:42:11.920Z,2.63
2018-12-10T16:44:38.505Z,2.80
2018-12-10T16:47:05.078Z,3.20
2018-12-10T16:49:31.670Z,2.27
2018-12-10T16:51:58.257Z,3.50
2018-12-10T16:54:24.825Z,2.77
2018-12-10T16:56:52.349Z,2.80
2018-12-10T16:59:18.921Z,2.43
2018-12-10T17:01:45.500Z,2.43
2018-12-10T17:04:12.092Z,1.60
2018-12-10T17:06:38.800Z,1.90
2018-12-10T17:09:07.056Z,1.90
2018-12-10T17:11:33.775Z,2.00
2018-12-10T17:14:00.481Z,2.60
2018-12-10T17:16:27.070Z,2.57
2018-12-10T17:18:53.734Z,3.10
2018-12-10T17:21:20.380Z,3.30
2018-12-10T17:23:46.949Z,3.33
2018-12-10T17:26:13.545Z,3.63
2018-12-10T17:28:40.131Z,3.47
2018-12-10T17:31:06.728Z,4.40
2018-12-10T17:33:33.317Z,5.00
2018-12-10T17:35:59.912Z,3.73
2018-12-10T17:38:26.483Z,4.03
2018-12-10T17:40:53.068Z,4.10
2018-12-10T17:43:19.639Z,3.57
2018-12-10T17:45:46.228Z,3.67
2018-12-10T17:48:12.921Z,4.30
2018-12-10T17:50:39.484Z,4.03
2018-12-10T17:53:06.052Z,3.57
2018-12-10T17:55:32.656Z,4.17
2018-12-10T17:57:59.225Z,3.70
2018-12-10T18:00:25.793Z,4.20
2018-12-10T18:02:52.384Z,3.70
2018-12-10T18:05:18.957Z,3.90
2018-12-10T18:07:45.581Z,4.23
2018-12-10T18:10:12.184Z,4.67
2018-12-10T18:12:38.752Z,4.30
2018-12-10T18:15:05.481Z,4.53
2018-12-10T18:17:32.053Z,4.80
2018-12-10T18:19:58.658Z,4.47
2018-12-10T18:22:25.305Z,5.10
2018-12-10T18:24:51.877Z,5.30
2018-12-10T18:27:18.466Z,4.80
2018-12-10T18:29:45.042Z,5.83
2018-12-10T18:32:11.638Z,4.90
2018-12-10T18:34:38.266Z,4.80
2018-12-10T18:37:04.842Z,4.73
2018-12-10T18:39:31.534Z,5.23
2018-12-10T18:41:58.129Z,5.30
2018-12-10T18:44:24.739Z,5.03
2018-12-10T18:46:51.382Z,4.63
2018-12-10T18:49:17.989Z,5.33
2018-12-10T18:51:44.583Z,4.80
2018-12-10T18:54:11.172Z,4.50
2018-12-10T18:56:37.777Z,4.97
2018-12-10T18:59:04.376Z,4.13
2018-12-10T19:01:30.989Z,4.83
2018-12-10T19:03:57.572Z,5.30
2018-12-10T19:06:24.176Z,4.50
2018-12-10T19:08:50.886Z,4.47
2018-12-10T19:11:17.597Z,3.63
2018-12-10T19:13:49.842Z,3.90
2018-12-10T19:16:12.861Z,4.50
2018-12-10T19:18:40.145Z,4.07
2018-12-10T19:21:06.777Z,3.60
2018-12-10T19:23:33.351Z,3.50
2018-12-10T19:25:59.934Z,3.27
2018-12-10T19:28:26.611Z,3.70
2018-12-10T19:30:53.202Z,3.10
2018-12-10T19:33:19.781Z,3.13
2018-12-10T19:35:46.446Z,2.70
2018-12-10T19:38:13.037Z,3.27
2018-12-10T19:40:39.733Z,3.27
2018-12-10T19:43:06.456Z,3.67
2018-12-10T19:45:33.133Z,3.33
2018-12-10T19:47:59.827Z,3.30
2018-12-10T19:50:26.436Z,3.67
2018-12-10T19:52:53.097Z,3.10
2018-12-10T19:55:19.689Z,3.43
2018-12-10T19:57:46.301Z,2.87
2018-12-10T20:00:12.925Z,2.93
2018-12-10T20:02:39.540Z,2.40
2018-12-10T20:05:06.361Z,2.63
2018-12-10T20:07:32.973Z,2.70
2018-12-10T20:09:59.552Z,2.47
2018-12-10T20:12:26.144Z,2.70
2018-12-10T20:14:52.715Z,3.07
2018-12-10T20:17:19.285Z,2.53
2018-12-10T20:19:46.700Z,2.93
2018-12-10T20:22:16.056Z,3.10
2018-12-10T20:24:43.601Z,3.07
2018-12-10T20:27:12.340Z,3.57
2018-12-10T20:29:40.464Z,3.43
2018-12-10T20:32:07.211Z,3.30
2018-12-10T20:34:33.821Z,2.63
2018-12-10T20:37:00.439Z,3.27
2018-12-10T20:39:27.073Z,3.53
2018-12-10T20:41:53.636Z,3.03
2018-12-10T20:44:20.240Z,3.00
2018-12-10T20:46:46.808Z,3.30
2018-12-10T20:49:13.372Z,3.17
2018-12-10T20:51:39.957Z,3.50
2018-12-10T20:54:06.543Z,3.40
2018-12-10T20:56:33.104Z,3.20
2018-12-10T20:58:59.674Z,3.50
2018-12-10T21:01:26.262Z,3.47
2018-12-10T21:03:52.849Z,4.20
2018-12-10T21:06:25.409Z,3.50
2018-12-10T21:08:51.997Z,3.47
2018-12-10T21:11:18.569Z,3.53
2018-12-10T21:13:45.992Z,3.83
2018-12-10T21:16:12.552Z,3.70
2018-12-10T21:18:39.156Z,3.20
2018-12-10T21:21:05.726Z,3.50
2018-12-10T21:23:32.316Z,2.73
2018-12-10T21:25:58.974Z,3.60
2018-12-10T21:28:25.610Z,3.47
2018-12-10T21:30:52.184Z,4.27
2018-12-10T21:33:19.366Z,4.30
2018-12-10T21:35:45.962Z,4.23
2018-12-10T21:38:12.530Z,3.43
2018-12-10T21:40:39.117Z,3.80
2018-12-10T21:43:05.685Z,3.40
2018-12-10T21:45:32.273Z,3.17
2018-12-10T21:47:58.836Z,3.13
2018-12-10T21:50:25.421Z,3.27
2018-12-10T21:52:51.997Z,3.20
2018-12-10T21:55:18.569Z,3.30
2018-12-10T21:57:45.179Z,2.90
2018-12-10T22:00:11.769Z,2.80
2018-12-10T22:02:38.375Z,3.20
2018-12-10T22:05:04.965Z,3.10
2018-12-10T22:07:31.549Z,3.13
2018-12-10T22:09:58.133Z,3.60
2018-12-10T22:12:24.717Z,3.47
2018-12-10T22:14:51.284Z,3.33
2018-12-10T22:17:17.947Z,3.10
2018-12-10T22:19:44.536Z,3.67
2018-12-10T22:22:11.108Z,3.53
2018-12-10T22:24:37.688Z,3.27
2018-12-10T22:27:04.289Z,3.70
2018-12-10T22:29:30.860Z,3.93
2018-12-10T22:31:57.449Z,3.13
2018-12-10T22:34:24.038Z,3.37
2018-12-10T22:36:50.606Z,4.10
2018-12-10T22:39:17.180Z,3.20
2018-12-10T22:41:43.753Z,3.33
2018-12-10T22:44:10.329Z,3.03
2018-12-10T22:46:36.903Z,3.73
2018-12-10T22:49:03.497Z,3.17
2018-12-10T22:51:30.077Z,3.00
2018-12-10T22:53:56.652Z,3.10
2018-12-10T22:56:23.263Z,3.10
2018-12-10T22:58:49.854Z,3.30
2018-12-10T23:01:16.453Z,3.13
2018-12-10T23:03:43.028Z,3.20
2018-12-10T23:06:09.588Z,3.30
2018-12-10T23:08:36.156Z,3.00
2018-12-10T23:11:02.730Z,3.10
2018-12-10T23:13:29.293Z,3.17
2018-12-10T23:15:55.880Z,3.10
2018-12-10T23:18:22.473Z,2.70
2018-12-10T23:20:49.056Z,2.97
2018-12-10T23:23:15.612Z,3.20
2018-12-10T23:25:42.180Z,3.17
2018-12-10T23:28:08.768Z,3.30
2018-12-10T23:30:35.368Z,3.83
2018-12-10T23:33:01.956Z,3.67
2018-12-10T23:35:28.544Z,3.10
2018-12-10T23:37:55.224Z,3.80
2018-12-10T23:40:21.785Z,3.23
2018-12-10T23:42:54.153Z,3.33
2018-12-10T23:45:20.721Z,2.97
2018-12-10T23:47:47.305Z,3.37
2018-12-10T23:50:13.864Z,3.00
2018-12-10T23:52:40.456Z,3.13
2018-12-10T23:55:07.061Z,4.17
2018-12-10T23:57:33.624Z,3.30
